sensor_id;sensor_type;location;lat;lon;timestamp;pressure;altitude;pressure_sealevel;temperature;humidity
8039;BME280;4062;49.844;8.120;2023-01-15T00:01:44;97791.50;;;14.60;58.11
8039;BME280;4062;49.844;8.120;2023-01-15T00:03:45;97788.84;;;14.60;58.00
8039;BME280;4062;49.844;8.120;2023-01-15T00:05:45;97786.19;;;14.60;58.14
8039;BME280;4062;49.844;8.120;2023-01-15T00:07:46;97781.75;;;14.60;58.18
8039;BME280;4062;49.844;8.120;2023-01-15T00:09:46;97787.16;;;14.59;58.04
8039;BME280;4062;49.844;8.120;2023-01-15T00:11:47;97773.88;;;14.59;58.06
8039;BME280;4062;49.844;8.120;2023-01-15T00:13:48;97767.69;;;14.58;58.02
8039;BME280;4062;49.844;8.120;2023-01-15T00:15:48;97770.25;;;14.60;58.07
8039;BME280;4062;49.844;8.120;2023-01-15T00:17:49;97753.44;;;14.59;58.20
8039;BME280;4062;49.844;8.120;2023-01-15T00:19:49;97764.09;;;14.59;58.06
8039;BME280;4062;49.844;8.120;2023-01-15T00:21:49;97762.25;;;14.60;57.78
8039;BME280;4062;49.844;8.120;2023-01-15T00:23:52;97764.09;;;14.59;58.15
8039;BME280;4062;49.844;8.120;2023-01-15T00:26:13;97758.78;;;14.59;58.14
8039;BME280;4062;49.844;8.120;2023-01-15T00:28:33;97754.28;;;14.60;58.24
8039;BME280;4062;49.844;8.120;2023-01-15T00:30:33;97759.59;;;14.60;58.07
8039;BME280;4062;49.844;8.120;2023-01-15T00:32:34;97764.91;;;14.60;58.21
8039;BME280;4062;49.844;8.120;2023-01-15T00:34:35;97769.41;;;14.59;57.99
8039;BME280;4062;49.844;8.120;2023-01-15T00:36:35;97773.88;;;14.59;58.12
8039;BME280;4062;49.844;8.120;2023-01-15T00:38:37;97775.66;;;14.58;58.27
8039;BME280;4062;49.844;8.120;2023-01-15T00:40:37;97783.63;;;14.58;58.33
8039;BME280;4062;49.844;8.120;2023-01-15T00:42:38;97788.13;;;14.58;58.32
8039;BME280;4062;49.844;8.120;2023-01-15T00:44:38;97783.63;;;14.58;58.26
8039;BME280;4062;49.844;8.120;2023-01-15T00:46:40;97778.31;;;14.58;58.25
8039;BME280;4062;49.844;8.120;2023-01-15T00:48:41;97780.03;;;14.59;58.17
8039;BME280;4062;49.844;8.120;2023-01-15T00:50:41;97779.19;;;14.59;58.29
8039;BME280;4062;49.844;8.120;2023-01-15T00:52:41;97781.84;;;14.59;58.07
8039;BME280;4062;49.844;8.120;2023-01-15T00:54:42;97776.63;;;14.57;58.36
8039;BME280;4062;49.844;8.120;2023-01-15T00:56:44;97770.34;;;14.58;58.18
8039;BME280;4062;49.844;8.120;2023-01-15T00:58:45;97780.16;;;14.58;58.40
8039;BME280;4062;49.844;8.120;2023-01-15T01:00:55;97773.00;;;14.58;58.14
8039;BME280;4062;49.844;8.120;2023-01-15T01:02:56;97771.31;;;14.57;58.36
8039;BME280;4062;49.844;8.120;2023-01-15T01:04:56;97776.63;;;14.57;58.23
8039;BME280;4062;49.844;8.120;2023-01-15T01:06:58;97772.16;;;14.58;58.03
8039;BME280;4062;49.844;8.120;2023-01-15T01:08:58;97776.63;;;14.57;58.21
8039;BME280;4062;49.844;8.120;2023-01-15T01:11:07;97776.63;;;14.57;58.22
8039;BME280;4062;49.844;8.120;2023-01-15T01:13:09;97763.34;;;14.57;58.09
8039;BME280;4062;49.844;8.120;2023-01-15T01:15:10;97768.66;;;14.57;58.14
8039;BME280;4062;49.844;8.120;2023-01-15T01:17:11;97768.66;;;14.57;58.22
8039;BME280;4062;49.844;8.120;2023-01-15T01:19:14;97769.59;;;14.56;58.11
8039;BME280;4062;49.844;8.120;2023-01-15T01:21:15;97787.34;;;14.56;58.40
8039;BME280;4062;49.844;8.120;2023-01-15T01:23:16;97787.34;;;14.56;58.28
8039;BME280;4062;49.844;8.120;2023-01-15T01:25:17;97787.25;;;14.57;58.32
8039;BME280;4062;49.844;8.120;2023-01-15T01:27:18;97794.38;;;14.57;58.19
8039;BME280;4062;49.844;8.120;2023-01-15T01:29:20;97797.88;;;14.57;58.12
8039;BME280;4062;49.844;8.120;2023-01-15T01:31:21;97794.38;;;14.57;58.24
8039;BME280;4062;49.844;8.120;2023-01-15T01:33:22;97791.72;;;14.57;58.02
8039;BME280;4062;49.844;8.120;2023-01-15T01:35:23;97799.69;;;14.57;58.24
8039;BME280;4062;49.844;8.120;2023-01-15T01:37:23;97799.69;;;14.57;58.07
8039;BME280;4062;49.844;8.120;2023-01-15T01:39:24;97804.16;;;14.56;58.28
8039;BME280;4062;49.844;8.120;2023-01-15T01:41:25;97810.34;;;14.57;58.21
8039;BME280;4062;49.844;8.120;2023-01-15T01:43:29;97810.34;;;14.57;58.17
8039;BME280;4062;49.844;8.120;2023-01-15T01:45:32;97814.78;;;14.56;58.09
8039;BME280;4062;49.844;8.120;2023-01-15T01:47:36;97820.09;;;14.56;58.17
8039;BME280;4062;49.844;8.120;2023-01-15T01:49:38;97836.91;;;14.57;58.15
8039;BME280;4062;49.844;8.120;2023-01-15T01:51:42;97834.25;;;14.57;58.21
8039;BME280;4062;49.844;8.120;2023-01-15T01:53:45;97840.50;;;14.56;58.30
8039;BME280;4062;49.844;8.120;2023-01-15T01:55:46;97832.53;;;14.56;58.31
8039;BME280;4062;49.844;8.120;2023-01-15T01:57:48;97836.03;;;14.56;58.22
8039;BME280;4062;49.844;8.120;2023-01-15T01:59:49;97834.25;;;14.57;58.21
8039;BME280;4062;49.844;8.120;2023-01-15T02:01:50;97835.19;;;14.56;58.47
8039;BME280;4062;49.844;8.120;2023-01-15T02:03:52;97828.06;;;14.56;58.27
8039;BME280;4062;49.844;8.120;2023-01-15T02:05:55;97829.88;;;14.56;58.24
8039;BME280;4062;49.844;8.120;2023-01-15T02:07:57;97824.56;;;14.56;58.28
8039;BME280;4062;49.844;8.120;2023-01-15T02:10:00;97824.56;;;14.56;58.02
8039;BME280;4062;49.844;8.120;2023-01-15T02:12:10;97841.34;;;14.56;58.22
8039;BME280;4062;49.844;8.120;2023-01-15T02:14:15;97837.84;;;14.56;58.09
8039;BME280;4062;49.844;8.120;2023-01-15T02:16:39;97844.00;;;14.56;58.16
8039;BME280;4062;49.844;8.120;2023-01-15T02:21:21;97853.81;;;14.56;58.21
8039;BME280;4062;49.844;8.120;2023-01-15T02:26:04;97862.72;;;14.54;58.29
8039;BME280;4062;49.844;8.120;2023-01-15T02:30:27;97876.84;;;14.55;58.28
8039;BME280;4062;49.844;8.120;2023-01-15T02:33:34;97868.88;;;14.55;58.03
8039;BME280;4062;49.844;8.120;2023-01-15T02:35:13;97875.19;;;14.54;58.21
8039;BME280;4062;49.844;8.120;2023-01-15T02:37:23;97868.03;;;14.54;58.12
8039;BME280;4062;49.844;8.120;2023-01-15T02:39:27;97864.53;;;14.54;58.16
8039;BME280;4062;49.844;8.120;2023-01-15T02:41:33;97867.19;;;14.54;58.12
8039;BME280;4062;49.844;8.120;2023-01-15T02:43:37;97866.34;;;14.53;58.30
8039;BME280;4062;49.844;8.120;2023-01-15T02:45:40;97866.34;;;14.53;57.78
8039;BME280;4062;49.844;8.120;2023-01-15T02:47:46;97875.19;;;14.54;58.17
8039;BME280;4062;49.844;8.120;2023-01-15T02:49:47;97867.19;;;14.54;58.13
8039;BME280;4062;49.844;8.120;2023-01-15T02:51:57;97867.19;;;14.54;58.43
8039;BME280;4062;49.844;8.120;2023-01-15T02:54:01;97865.50;;;14.53;58.13
8039;BME280;4062;49.844;8.120;2023-01-15T02:56:11;97866.34;;;14.53;58.30
8039;BME280;4062;49.844;8.120;2023-01-15T02:58:23;97875.25;;;14.52;58.32
8039;BME280;4062;49.844;8.120;2023-01-15T03:00:29;97877.84;;;14.54;58.24
8039;BME280;4062;49.844;8.120;2023-01-15T03:02:41;97875.19;;;14.54;58.24
8039;BME280;4062;49.844;8.120;2023-01-15T03:05:01;97882.28;;;14.53;58.18
8039;BME280;4062;49.844;8.120;2023-01-15T03:07:23;97876.13;;;14.53;58.30
8039;BME280;4062;49.844;8.120;2023-01-15T03:09:25;97878.78;;;14.53;58.16
8039;BME280;4062;49.844;8.120;2023-01-15T03:11:27;97873.47;;;14.53;58.26
8039;BME280;4062;49.844;8.120;2023-01-15T03:16:02;97872.50;;;14.54;58.43
8039;BME280;4062;49.844;8.120;2023-01-15T03:18:27;97883.16;;;14.54;58.30
8039;BME280;4062;49.844;8.120;2023-01-15T03:20:30;97881.44;;;14.53;58.37
8039;BME280;4062;49.844;8.120;2023-01-15T03:22:38;97876.13;;;14.53;58.19
8039;BME280;4062;49.844;8.120;2023-01-15T03:24:52;97878.78;;;14.53;58.33
8039;BME280;4062;49.844;8.120;2023-01-15T03:26:53;97878.78;;;14.53;58.15
8039;BME280;4062;49.844;8.120;2023-01-15T03:28:54;97877.06;;;14.52;58.46
8039;BME280;4062;49.844;8.120;2023-01-15T03:30:57;97894.72;;;14.53;58.22
8039;BME280;4062;49.844;8.120;2023-01-15T03:32:59;97898.34;;;14.52;58.17
8039;BME280;4062;49.844;8.120;2023-01-15T03:34:59;97898.34;;;14.52;58.37
8039;BME280;4062;49.844;8.120;2023-01-15T03:37:03;97895.66;;;14.52;58.31
8039;BME280;4062;49.844;8.120;2023-01-15T03:39:04;97908.09;;;14.51;58.46
8039;BME280;4062;49.844;8.120;2023-01-15T03:46:35;97918.66;;;14.53;58.04
8039;BME280;4062;49.844;8.120;2023-01-15T03:50:52;97908.97;;;14.52;58.29
8039;BME280;4062;49.844;8.120;2023-01-15T03:53:13;97916.94;;;14.52;58.17
8039;BME280;4062;49.844;8.120;2023-01-15T03:55:35;97919.59;;;14.52;58.58
8039;BME280;4062;49.844;8.120;2023-01-15T03:57:56;97920.53;;;14.51;58.37
8039;BME280;4062;49.844;8.120;2023-01-15T04:00:00;97912.56;;;14.51;58.42
8039;BME280;4062;49.844;8.120;2023-01-15T04:02:07;97920.53;;;14.51;58.24
8039;BME280;4062;49.844;8.120;2023-01-15T04:04:10;97918.72;;;14.51;58.37
8039;BME280;4062;49.844;8.120;2023-01-15T04:06:12;97925.84;;;14.51;58.33
8039;BME280;4062;49.844;8.120;2023-01-15T04:08:14;97933.81;;;14.51;58.20
8039;BME280;4062;49.844;8.120;2023-01-15T04:10:17;97933.81;;;14.51;58.41
8039;BME280;4062;49.844;8.120;2023-01-15T04:12:20;97932.97;;;14.50;58.33
8039;BME280;4062;49.844;8.120;2023-01-15T04:14:22;97939.13;;;14.51;58.39
8039;BME280;4062;49.844;8.120;2023-01-15T04:16:31;97940.94;;;14.50;58.25
8039;BME280;4062;49.844;8.120;2023-01-15T04:18:32;97934.78;;;14.50;58.28
8039;BME280;4062;49.844;8.120;2023-01-15T04:20:33;97945.41;;;14.50;58.27
8039;BME280;4062;49.844;8.120;2023-01-15T04:22:33;97949.78;;;14.51;58.12
8039;BME280;4062;49.844;8.120;2023-01-15T04:24:35;97948.91;;;14.50;58.19
8039;BME280;4062;49.844;8.120;2023-01-15T04:26:36;97951.56;;;14.50;58.23
8039;BME280;4062;49.844;8.120;2023-01-15T04:28:36;97949.78;;;14.51;58.31
8039;BME280;4062;49.844;8.120;2023-01-15T04:30:37;97948.06;;;14.50;58.32
8039;BME280;4062;49.844;8.120;2023-01-15T04:32:37;97948.91;;;14.50;58.44
8039;BME280;4062;49.844;8.120;2023-01-15T04:34:38;97940.09;;;14.50;58.56
8039;BME280;4062;49.844;8.120;2023-01-15T04:36:38;97938.28;;;14.50;58.12
8039;BME280;4062;49.844;8.120;2023-01-15T04:38:39;97935.63;;;14.50;58.12
8039;BME280;4062;49.844;8.120;2023-01-15T04:40:39;97946.25;;;14.50;57.97
8039;BME280;4062;49.844;8.120;2023-01-15T04:42:59;97946.16;;;14.52;58.18
8039;BME280;4062;49.844;8.120;2023-01-15T04:45:18;97956.69;;;14.53;58.58
8039;BME280;4062;49.844;8.120;2023-01-15T04:47:21;97963.59;;;14.56;58.33
8039;BME280;4062;49.844;8.120;2023-01-15T04:49:22;97970.56;;;14.59;58.55
8039;BME280;4062;49.844;8.120;2023-01-15T04:51:22;97962.38;;;14.62;58.56
8039;BME280;4062;49.844;8.120;2023-01-15T04:53:25;97963.03;;;14.65;58.58
8039;BME280;4062;49.844;8.120;2023-01-15T04:55:26;97952.34;;;14.67;58.27
8039;BME280;4062;49.844;8.120;2023-01-15T04:57:26;97942.38;;;14.71;58.49
8039;BME280;4062;49.844;8.120;2023-01-15T04:59:27;97955.44;;;14.74;58.50
8039;BME280;4062;49.844;8.120;2023-01-15T05:01:27;97950.03;;;14.75;58.47
8039;BME280;4062;49.844;8.120;2023-01-15T05:03:31;97956.00;;;14.79;58.57
8039;BME280;4062;49.844;8.120;2023-01-15T05:05:31;97962.09;;;14.81;58.70
8039;BME280;4062;49.844;8.120;2023-01-15T05:07:32;97964.63;;;14.82;58.49
8039;BME280;4062;49.844;8.120;2023-01-15T05:09:32;97962.81;;;14.83;58.56
8039;BME280;4062;49.844;8.120;2023-01-15T05:11:37;97967.19;;;14.84;58.69
8039;BME280;4062;49.844;8.120;2023-01-15T05:13:38;97971.56;;;14.85;58.69
8039;BME280;4062;49.844;8.120;2023-01-15T05:15:38;97978.59;;;14.86;58.34
8039;BME280;4062;49.844;8.120;2023-01-15T05:17:41;97972.31;;;14.87;58.53
8039;BME280;4062;49.844;8.120;2023-01-15T05:19:41;97977.63;;;14.87;58.86
8039;BME280;4062;49.844;8.120;2023-01-15T05:21:43;97987.31;;;14.88;58.33
8039;BME280;4062;49.844;8.120;2023-01-15T05:23:43;97997.97;;;14.88;58.53
8039;BME280;4062;49.844;8.120;2023-01-15T05:25:47;98000.63;;;14.88;58.52
8039;BME280;4062;49.844;8.120;2023-01-15T05:27:48;97993.59;;;14.87;58.50
8039;BME280;4062;49.844;8.120;2023-01-15T05:29:48;97992.66;;;14.88;58.57
8039;BME280;4062;49.844;8.120;2023-01-15T05:31:48;97995.31;;;14.88;58.26
8039;BME280;4062;49.844;8.120;2023-01-15T05:33:53;97995.31;;;14.88;58.53
8039;BME280;4062;49.844;8.120;2023-01-15T05:35:53;98003.28;;;14.88;58.56
8039;BME280;4062;49.844;8.120;2023-01-15T05:37:54;98012.97;;;14.89;58.46
8039;BME280;4062;49.844;8.120;2023-01-15T05:39:54;98004.13;;;14.89;58.47
8039;BME280;4062;49.844;8.120;2023-01-15T05:41:54;98005.94;;;14.88;58.65
8039;BME280;4062;49.844;8.120;2023-01-15T05:43:58;98014.75;;;14.89;58.44
8039;BME280;4062;49.844;8.120;2023-01-15T05:46:00;98013.91;;;14.88;58.49
8039;BME280;4062;49.844;8.120;2023-01-15T05:48:01;98005.94;;;14.88;58.56
8039;BME280;4062;49.844;8.120;2023-01-15T05:50:02;98016.56;;;14.88;58.37
8039;BME280;4062;49.844;8.120;2023-01-15T05:52:02;98020.19;;;14.87;58.36
8039;BME280;4062;49.844;8.120;2023-01-15T05:54:04;98019.25;;;14.88;58.49
8039;BME280;4062;49.844;8.120;2023-01-15T05:56:05;98015.72;;;14.88;58.42
8039;BME280;4062;49.844;8.120;2023-01-15T05:58:06;98013.03;;;14.88;58.49
8039;BME280;4062;49.844;8.120;2023-01-15T06:00:07;98012.22;;;14.87;58.51
8039;BME280;4062;49.844;8.120;2023-01-15T06:02:13;98010.50;;;14.86;58.46
8039;BME280;4062;49.844;8.120;2023-01-15T06:04:14;98005.19;;;14.86;58.34
8039;BME280;4062;49.844;8.120;2023-01-15T06:06:17;98007.00;;;14.85;58.40
8039;BME280;4062;49.844;8.120;2023-01-15T06:08:18;98005.19;;;14.86;58.41
8039;BME280;4062;49.844;8.120;2023-01-15T06:10:18;98006.13;;;14.85;58.62
8039;BME280;4062;49.844;8.120;2023-01-15T06:12:19;98013.16;;;14.86;58.34
8039;BME280;4062;49.844;8.120;2023-01-15T06:14:19;98014.97;;;14.85;58.41
8039;BME280;4062;49.844;8.120;2023-01-15T06:16:20;98018.59;;;14.84;58.41
8039;BME280;4062;49.844;8.120;2023-01-15T06:18:21;98018.59;;;14.84;58.00
8039;BME280;4062;49.844;8.120;2023-01-15T06:20:23;98024.75;;;14.85;58.35
8039;BME280;4062;49.844;8.120;2023-01-15T06:22:23;98032.72;;;14.85;58.40
8039;BME280;4062;49.844;8.120;2023-01-15T06:24:24;98037.19;;;14.84;58.48
8039;BME280;4062;49.844;8.120;2023-01-15T06:26:25;98042.50;;;14.84;58.53
8039;BME280;4062;49.844;8.120;2023-01-15T06:28:26;98038.97;;;14.84;58.35
8039;BME280;4062;49.844;8.120;2023-01-15T06:30:26;98033.66;;;14.84;58.39
8039;BME280;4062;49.844;8.120;2023-01-15T06:32:27;98032.81;;;14.83;58.35
8039;BME280;4062;49.844;8.120;2023-01-15T06:34:27;98046.13;;;14.83;58.46
8039;BME280;4062;49.844;8.120;2023-01-15T06:36:28;98056.75;;;14.83;58.41
8039;BME280;4062;49.844;8.120;2023-01-15T06:38:28;98064.72;;;14.83;58.13
8039;BME280;4062;49.844;8.120;2023-01-15T06:40:29;98067.38;;;14.83;58.26
8039;BME280;4062;49.844;8.120;2023-01-15T06:42:29;98063.84;;;14.83;58.35
8039;BME280;4062;49.844;8.120;2023-01-15T06:44:48;98060.34;;;14.82;58.23
8039;BME280;4062;49.844;8.120;2023-01-15T06:47:12;98065.69;;;14.82;58.31
8039;BME280;4062;49.844;8.120;2023-01-15T06:49:22;98067.47;;;14.82;58.27
8039;BME280;4062;49.844;8.120;2023-01-15T06:51:23;98065.69;;;14.82;58.25
8039;BME280;4062;49.844;8.120;2023-01-15T06:53:24;98068.34;;;14.82;58.09
8039;BME280;4062;49.844;8.120;2023-01-15T06:55:24;98059.50;;;14.82;58.34
8039;BME280;4062;49.844;8.120;2023-01-15T06:57:25;98052.50;;;14.81;58.45
8039;BME280;4062;49.844;8.120;2023-01-15T06:59:25;98053.34;;;14.81;58.35
8039;BME280;4062;49.844;8.120;2023-01-15T07:01:26;98054.28;;;14.80;58.38
8039;BME280;4062;49.844;8.120;2023-01-15T07:03:30;98071.09;;;14.81;58.34
8039;BME280;4062;49.844;8.120;2023-01-15T07:05:30;98068.44;;;14.81;58.34
8039;BME280;4062;49.844;8.120;2023-01-15T07:07:31;98072.06;;;14.80;58.31
8039;BME280;4062;49.844;8.120;2023-01-15T07:09:31;98073.75;;;14.81;58.20
8039;BME280;4062;49.844;8.120;2023-01-15T07:11:32;98092.38;;;14.81;58.17
8039;BME280;4062;49.844;8.120;2023-01-15T07:13:33;98091.50;;;14.80;58.19
8039;BME280;4062;49.844;8.120;2023-01-15T07:15:33;98099.47;;;14.80;58.16
8039;BME280;4062;49.844;8.120;2023-01-15T07:17:34;98098.63;;;14.80;58.16
8039;BME280;4062;49.844;8.120;2023-01-15T07:19:35;98098.63;;;14.80;58.12
8039;BME280;4062;49.844;8.120;2023-01-15T07:21:35;98098.63;;;14.80;58.23
8039;BME280;4062;49.844;8.120;2023-01-15T07:23:36;98109.28;;;14.80;58.09
8039;BME280;4062;49.844;8.120;2023-01-15T07:25:36;98111.94;;;14.80;58.06
8039;BME280;4062;49.844;8.120;2023-01-15T07:27:37;98113.72;;;14.79;57.99
8039;BME280;4062;49.844;8.120;2023-01-15T07:29:38;98104.03;;;14.78;58.31
8039;BME280;4062;49.844;8.120;2023-01-15T07:31:39;98110.22;;;14.79;58.18
8039;BME280;4062;49.844;8.120;2023-01-15T07:33:40;98115.53;;;14.79;58.31
8039;BME280;4062;49.844;8.120;2023-01-15T07:35:41;98118.19;;;14.79;58.04
8039;BME280;4062;49.844;8.120;2023-01-15T07:37:41;98114.66;;;14.78;58.05
8039;BME280;4062;49.844;8.120;2023-01-15T07:39:43;98116.47;;;14.78;58.14
8039;BME280;4062;49.844;8.120;2023-01-15T07:41:44;98119.16;;;14.78;58.04
8039;BME280;4062;49.844;8.120;2023-01-15T07:44:09;98125.31;;;14.78;58.13
8039;BME280;4062;49.844;8.120;2023-01-15T07:46:29;98132.44;;;14.78;58.19
8039;BME280;4062;49.844;8.120;2023-01-15T07:48:48;98136.81;;;14.79;58.12
8039;BME280;4062;49.844;8.120;2023-01-15T07:51:07;98142.22;;;14.77;58.18
8039;BME280;4062;49.844;8.120;2023-01-15T07:53:08;98150.22;;;14.77;57.94
8039;BME280;4062;49.844;8.120;2023-01-15T07:55:11;98162.53;;;14.78;58.00
8039;BME280;4062;49.844;8.120;2023-01-15T07:57:14;98157.22;;;14.78;58.18
8039;BME280;4062;49.844;8.120;2023-01-15T07:59:17;98159.03;;;14.78;57.98
8039;BME280;4062;49.844;8.120;2023-01-15T08:01:17;98161.69;;;14.78;58.00
8039;BME280;4062;49.844;8.120;2023-01-15T08:03:18;98161.69;;;14.78;58.04
8039;BME280;4062;49.844;8.120;2023-01-15T08:05:19;98159.03;;;14.78;58.17
8039;BME280;4062;49.844;8.120;2023-01-15T08:07:23;98150.22;;;14.77;58.21
8039;BME280;4062;49.844;8.120;2023-01-15T08:09:24;98166.16;;;14.77;58.11
8039;BME280;4062;49.844;8.120;2023-01-15T08:11:25;98167.00;;;14.78;57.84
8039;BME280;4062;49.844;8.120;2023-01-15T08:13:44;98165.28;;;14.77;57.99
8039;BME280;4062;49.844;8.120;2023-01-15T08:16:03;98170.59;;;14.77;57.91
8039;BME280;4062;49.844;8.120;2023-01-15T08:18:04;98168.81;;;14.77;58.07
8039;BME280;4062;49.844;8.120;2023-01-15T08:20:09;98159.97;;;14.77;57.91
8039;BME280;4062;49.844;8.120;2023-01-15T08:22:10;98174.13;;;14.77;58.00
8039;BME280;4062;49.844;8.120;2023-01-15T08:24:11;98170.59;;;14.77;58.05
8039;BME280;4062;49.844;8.120;2023-01-15T08:26:12;98175.09;;;14.76;57.94
8039;BME280;4062;49.844;8.120;2023-01-15T08:28:12;98168.06;;;14.75;58.17
8039;BME280;4062;49.844;8.120;2023-01-15T08:30:17;98169.75;;;14.76;57.80
8039;BME280;4062;49.844;8.120;2023-01-15T08:32:18;98183.06;;;14.76;57.95
8039;BME280;4062;49.844;8.120;2023-01-15T08:34:18;98179.53;;;14.76;58.06
8039;BME280;4062;49.844;8.120;2023-01-15T08:36:19;98179.63;;;14.74;58.04
8039;BME280;4062;49.844;8.120;2023-01-15T08:38:19;98180.47;;;14.75;58.23
8039;BME280;4062;49.844;8.120;2023-01-15T08:40:20;98188.44;;;14.75;58.09
8039;BME280;4062;49.844;8.120;2023-01-15T08:42:21;98183.13;;;14.75;58.12
8039;BME280;4062;49.844;8.120;2023-01-15T08:44:22;98191.09;;;14.75;58.14
8039;BME280;4062;49.844;8.120;2023-01-15T08:46:22;98192.94;;;14.74;58.00
8039;BME280;4062;49.844;8.120;2023-01-15T08:48:24;98191.97;;;14.75;58.01
8039;BME280;4062;49.844;8.120;2023-01-15T08:50:25;98175.25;;;14.73;58.23
8039;BME280;4062;49.844;8.120;2023-01-15T08:52:25;98183.13;;;14.75;57.99
8039;BME280;4062;49.844;8.120;2023-01-15T08:54:26;98182.28;;;14.74;58.16
8039;BME280;4062;49.844;8.120;2023-01-15T08:56:26;98184.94;;;14.74;58.10
8039;BME280;4062;49.844;8.120;2023-01-15T08:58:29;98188.44;;;14.75;58.26
8039;BME280;4062;49.844;8.120;2023-01-15T09:00:30;98191.09;;;14.75;58.07
8039;BME280;4062;49.844;8.120;2023-01-15T09:02:30;98185.78;;;14.75;57.99
8039;BME280;4062;49.844;8.120;2023-01-15T09:04:30;98192.06;;;14.74;58.25
8039;BME280;4062;49.844;8.120;2023-01-15T09:06:31;98198.25;;;14.74;57.97
8039;BME280;4062;49.844;8.120;2023-01-15T09:08:32;98207.16;;;14.73;58.11
8039;BME280;4062;49.844;8.120;2023-01-15T09:10:33;98213.31;;;14.74;58.04
8039;BME280;4062;49.844;8.120;2023-01-15T09:12:33;98214.19;;;14.74;58.03
8039;BME280;4062;49.844;8.120;2023-01-15T09:14:34;98223.88;;;14.75;58.13
8039;BME280;4062;49.844;8.120;2023-01-15T09:16:35;98236.31;;;14.75;58.21
8039;BME280;4062;49.844;8.120;2023-01-15T09:18:37;98229.28;;;14.74;58.27
8039;BME280;4062;49.844;8.120;2023-01-15T09:20:38;98238.13;;;14.74;58.24
8039;BME280;4062;49.844;8.120;2023-01-15T09:22:38;98236.41;;;14.73;57.97
8039;BME280;4062;49.844;8.120;2023-01-15T09:24:39;98237.25;;;14.74;57.90
8039;BME280;4062;49.844;8.120;2023-01-15T09:26:39;98241.63;;;14.75;58.03
8039;BME280;4062;49.844;8.120;2023-01-15T09:28:40;98243.44;;;14.74;57.99
8039;BME280;4062;49.844;8.120;2023-01-15T09:30:40;98238.22;;;14.73;58.04
8039;BME280;4062;49.844;8.120;2023-01-15T09:32:41;98246.94;;;14.75;57.88
8039;BME280;4062;49.844;8.120;2023-01-15T09:34:41;98250.53;;;14.74;58.06
8039;BME280;4062;49.844;8.120;2023-01-15T09:36:42;98264.72;;;14.74;58.03
8039;BME280;4062;49.844;8.120;2023-01-15T09:38:43;98270.88;;;14.75;58.07
8039;BME280;4062;49.844;8.120;2023-01-15T09:40:58;98276.28;;;14.73;57.95
8039;BME280;4062;49.844;8.120;2023-01-15T09:43:48;98277.13;;;14.74;58.00
8039;BME280;4062;49.844;8.120;2023-01-15T09:53:30;98296.72;;;14.73;58.08
8039;BME280;4062;49.844;8.120;2023-01-15T09:55:45;98309.03;;;14.74;57.93
8039;BME280;4062;49.844;8.120;2023-01-15T09:57:51;98298.50;;;14.72;57.91
8039;BME280;4062;49.844;8.120;2023-01-15T09:59:54;98313.50;;;14.73;57.87
8039;BME280;4062;49.844;8.120;2023-01-15T10:02:24;98316.28;;;14.72;57.87
8039;BME280;4062;49.844;8.120;2023-01-15T10:04:32;98310.94;;;14.72;58.01
8039;BME280;4062;49.844;8.120;2023-01-15T10:06:42;98310.94;;;14.72;57.81
8039;BME280;4062;49.844;8.120;2023-01-15T10:08:46;98310.06;;;14.71;57.95
8039;BME280;4062;49.844;8.120;2023-01-15T10:10:52;98324.25;;;14.72;57.98
8039;BME280;4062;49.844;8.120;2023-01-15T10:12:57;98327.75;;;14.72;57.88
8039;BME280;4062;49.844;8.120;2023-01-15T10:15:24;98331.34;;;14.71;57.84
8039;BME280;4062;49.844;8.120;2023-01-15T10:17:30;98334.00;;;14.71;57.84
8039;BME280;4062;49.844;8.120;2023-01-15T10:19:35;98334.00;;;14.71;57.77
8039;BME280;4062;49.844;8.120;2023-01-15T10:22:00;98336.66;;;14.71;57.79
8039;BME280;4062;49.844;8.120;2023-01-15T10:26:37;98346.47;;;14.71;57.88
8039;BME280;4062;49.844;8.120;2023-01-15T10:29:17;98344.63;;;14.71;57.95
8039;BME280;4062;49.844;8.120;2023-01-15T10:31:34;98346.47;;;14.71;57.61
8039;BME280;4062;49.844;8.120;2023-01-15T10:33:57;98338.47;;;14.71;57.82
8039;BME280;4062;49.844;8.120;2023-01-15T10:36:10;98324.31;;;14.70;57.91
8039;BME280;4062;49.844;8.120;2023-01-15T10:40:36;98317.22;;;14.71;57.92
8039;BME280;4062;49.844;8.120;2023-01-15T10:47:01;98316.34;;;14.70;58.10
8039;BME280;4062;49.844;8.120;2023-01-15T10:49:15;98314.56;;;14.71;57.92
8039;BME280;4062;49.844;8.120;2023-01-15T10:51:53;98306.66;;;14.69;57.88
8039;BME280;4062;49.844;8.120;2023-01-15T10:53:59;98304.00;;;14.69;58.14
8039;BME280;4062;49.844;8.120;2023-01-15T10:56:27;98302.19;;;14.69;57.87
8039;BME280;4062;49.844;8.120;2023-01-15T10:58:53;98304.00;;;14.69;57.92
8039;BME280;4062;49.844;8.120;2023-01-15T11:01:00;98303.16;;;14.68;57.93
8039;BME280;4062;49.844;8.120;2023-01-15T11:03:10;98304.00;;;14.69;57.91
8039;BME280;4062;49.844;8.120;2023-01-15T11:05:16;98307.63;;;14.68;57.86
8039;BME280;4062;49.844;8.120;2023-01-15T11:07:21;98308.47;;;14.68;57.90
8039;BME280;4062;49.844;8.120;2023-01-15T11:09:25;98304.97;;;14.68;57.89
8039;BME280;4062;49.844;8.120;2023-01-15T11:11:49;98308.47;;;14.68;58.07
8039;BME280;4062;49.844;8.120;2023-01-15T11:13:59;98310.28;;;14.68;58.05
8039;BME280;4062;49.844;8.120;2023-01-15T11:16:23;98305.81;;;14.68;57.97
8039;BME280;4062;49.844;8.120;2023-01-15T11:21:52;98322.69;;;14.67;57.93
8039;BME280;4062;49.844;8.120;2023-01-15T11:23:54;98325.34;;;14.67;58.02
8039;BME280;4062;49.844;8.120;2023-01-15T11:25:58;98325.25;;;14.69;58.03
8039;BME280;4062;49.844;8.120;2023-01-15T11:28:02;98328.88;;;14.68;58.12
8039;BME280;4062;49.844;8.120;2023-01-15T11:30:05;98320.91;;;14.68;58.00
8039;BME280;4062;49.844;8.120;2023-01-15T11:32:28;98331.56;;;14.68;58.01
8039;BME280;4062;49.844;8.120;2023-01-15T11:34:29;98325.34;;;14.67;57.98
8039;BME280;4062;49.844;8.120;2023-01-15T11:36:30;98320.03;;;14.67;58.05
8039;BME280;4062;49.844;8.120;2023-01-15T11:38:45;98324.41;;;14.68;58.05
8039;BME280;4062;49.844;8.120;2023-01-15T11:40:54;98311.13;;;14.68;57.93
8039;BME280;4062;49.844;8.120;2023-01-15T11:42:56;98310.28;;;14.68;58.19
8039;BME280;4062;49.844;8.120;2023-01-15T11:45:18;98300.50;;;14.68;57.92
8039;BME280;4062;49.844;8.120;2023-01-15T11:47:37;98289.84;;;14.68;57.91
8039;BME280;4062;49.844;8.120;2023-01-15T11:49:57;98293.47;;;14.67;58.09
8039;BME280;4062;49.844;8.120;2023-01-15T11:52:19;98289.84;;;14.68;57.98
8039;BME280;4062;49.844;8.120;2023-01-15T11:54:23;98286.34;;;14.68;57.96
8039;BME280;4062;49.844;8.120;2023-01-15T11:56:27;98286.25;;;14.69;57.98
8039;BME280;4062;49.844;8.120;2023-01-15T11:58:38;98293.34;;;14.69;58.04